sensor_id;sensor_type;location;lat;lon;timestamp;pressure;altitude;pressure_sealevel;temperature;humidity
74542;BME280;63015;45.378;20.360;2023-12-20T00:01:36;100793.41;;;2.44;78.37
74542;BME280;63015;45.378;20.360;2023-12-20T00:03:37;100801.94;;;2.43;78.70
74542;BME280;63015;45.378;20.360;2023-12-20T00:05:37;100793.41;;;2.44;78.53
74542;BME280;63015;45.378;20.360;2023-12-20T00:07:42;100780.25;;;2.37;78.93
74542;BME280;63015;45.378;20.360;2023-12-20T00:09:43;100779.53;;;2.41;79.03
74542;BME280;63015;45.378;20.360;2023-12-20T00:11:43;100777.03;;;2.42;78.95
74542;BME280;63015;45.378;20.360;2023-12-20T00:13:44;100778.78;;;2.43;78.99
74542;BME280;63015;45.378;20.360;2023-12-20T00:15:44;100766.75;;;2.42;78.97
74542;BME280;63015;45.378;20.360;2023-12-20T00:17:45;100765.00;;;2.41;78.89
74542;BME280;63015;45.378;20.360;2023-12-20T00:19:45;100758.31;;;2.46;78.53
74542;BME280;63015;45.378;20.360;2023-12-20T00:21:46;100752.13;;;2.41;78.88
74542;BME280;63015;45.378;20.360;2023-12-20T00:23:46;100751.94;;;2.37;79.05
74542;BME280;63015;45.378;20.360;2023-12-20T00:25:47;100745.22;;;2.40;79.10
74542;BME280;63015;45.378;20.360;2023-12-20T00:27:47;100745.13;;;2.37;79.00
74542;BME280;63015;45.378;20.360;2023-12-20T00:29:56;100745.28;;;2.42;78.78
74542;BME280;63015;45.378;20.360;2023-12-20T00:31:57;100740.66;;;2.33;79.15
74542;BME280;63015;45.378;20.360;2023-12-20T00:33:57;100739.84;;;2.34;79.24
74542;BME280;63015;45.378;20.360;2023-12-20T00:35:58;100731.84;;;2.26;79.59
74542;BME280;63015;45.378;20.360;2023-12-20T00:38:05;100735.41;;;2.30;79.27
74542;BME280;63015;45.378;20.360;2023-12-20T00:40:07;100733.31;;;2.42;78.77
74542;BME280;63015;45.378;20.360;2023-12-20T00:42:08;100736.84;;;2.46;78.69
74542;BME280;63015;45.378;20.360;2023-12-20T00:44:08;100730.75;;;2.42;78.51
74542;BME280;63015;45.378;20.360;2023-12-20T00:46:11;100725.41;;;2.38;78.92
74542;BME280;63015;45.378;20.360;2023-12-20T00:48:11;100724.56;;;2.37;79.17
74542;BME280;63015;45.378;20.360;2023-12-20T00:50:12;100720.22;;;2.36;79.13
74542;BME280;63015;45.378;20.360;2023-12-20T00:52:13;100716.97;;;2.42;78.90
74542;BME280;63015;45.378;20.360;2023-12-20T00:54:13;100717.16;;;2.46;78.42
74542;BME280;63015;45.378;20.360;2023-12-20T00:56:14;100711.69;;;2.37;78.99
74542;BME280;63015;45.378;20.360;2023-12-20T00:58:15;100711.44;;;2.31;79.30
74542;BME280;63015;45.378;20.360;2023-12-20T01:00:15;100710.28;;;2.23;79.57
74542;BME280;63015;45.378;20.360;2023-12-20T01:02:16;100708.88;;;2.31;79.42
74542;BME280;63015;45.378;20.360;2023-12-20T01:04:16;100712.44;;;2.35;79.33
74542;BME280;63015;45.378;20.360;2023-12-20T01:06:20;100710.56;;;2.30;79.56
74542;BME280;63015;45.378;20.360;2023-12-20T01:08:21;100703.47;;;2.23;79.65
74542;BME280;63015;45.378;20.360;2023-12-20T01:10:21;100702.94;;;2.32;79.44
74542;BME280;63015;45.378;20.360;2023-12-20T01:12:23;100699.31;;;2.27;79.67
74542;BME280;63015;45.378;20.360;2023-12-20T01:14:23;100697.94;;;2.37;79.19
74542;BME280;63015;45.378;20.360;2023-12-20T01:16:24;100698.66;;;2.33;78.74
74542;BME280;63015;45.378;20.360;2023-12-20T01:18:24;100688.25;;;2.29;78.78
74542;BME280;63015;45.378;20.360;2023-12-20T01:20:25;100695.03;;;2.27;78.90
74542;BME280;63015;45.378;20.360;2023-12-20T01:22:25;100685.69;;;2.29;78.82
74542;BME280;63015;45.378;20.360;2023-12-20T01:24:27;100678.31;;;2.16;79.20
74542;BME280;63015;45.378;20.360;2023-12-20T01:26:28;100690.06;;;2.09;79.64
74542;BME280;63015;45.378;20.360;2023-12-20T01:28:28;100671.97;;;2.06;80.17
74542;BME280;63015;45.378;20.360;2023-12-20T01:30:29;100673.13;;;2.14;79.62
74542;BME280;63015;45.378;20.360;2023-12-20T01:32:29;100668.22;;;2.21;79.22
74542;BME280;63015;45.378;20.360;2023-12-20T01:34:30;100666.47;;;2.20;79.23
74542;BME280;63015;45.378;20.360;2023-12-20T01:36:31;100656.84;;;2.14;79.53
74542;BME280;63015;45.378;20.360;2023-12-20T01:38:31;100659.56;;;2.19;79.10
74542;BME280;63015;45.378;20.360;2023-12-20T01:40:32;100656.41;;;2.26;78.77
74542;BME280;63015;45.378;20.360;2023-12-20T01:42:33;100651.34;;;2.29;78.52
74542;BME280;63015;45.378;20.360;2023-12-20T01:44:34;100657.13;;;2.22;78.93
74542;BME280;63015;45.378;20.360;2023-12-20T01:46:35;100651.31;;;2.27;78.37
74542;BME280;63015;45.378;20.360;2023-12-20T01:48:35;100647.66;;;2.21;78.74
74542;BME280;63015;45.378;20.360;2023-12-20T01:50:36;100653.66;;;2.21;78.61
74542;BME280;63015;45.378;20.360;2023-12-20T01:52:38;100654.53;;;2.22;78.78
74542;BME280;63015;45.378;20.360;2023-12-20T01:54:41;100655.84;;;2.10;79.15
74542;BME280;63015;45.378;20.360;2023-12-20T01:56:43;100648.22;;;2.13;79.01
74542;BME280;63015;45.378;20.360;2023-12-20T01:58:44;100646.31;;;2.08;79.26
74542;BME280;63015;45.378;20.360;2023-12-20T02:00:46;100646.47;;;2.12;79.14
74542;BME280;63015;45.378;20.360;2023-12-20T02:02:46;100643.91;;;2.12;79.20
74542;BME280;63015;45.378;20.360;2023-12-20T02:04:47;100632.94;;;2.17;78.93
74542;BME280;63015;45.378;20.360;2023-12-20T02:06:49;100635.56;;;2.18;78.77
74542;BME280;63015;45.378;20.360;2023-12-20T02:08:52;100631.81;;;2.10;78.89
74542;BME280;63015;45.378;20.360;2023-12-20T02:10:53;100625.41;;;1.99;79.18
74542;BME280;63015;45.378;20.360;2023-12-20T02:12:54;100615.66;;;1.90;79.51
74542;BME280;63015;45.378;20.360;2023-12-20T02:14:55;100620.28;;;1.99;79.14
74542;BME280;63015;45.378;20.360;2023-12-20T02:16:55;100616.13;;;1.79;79.25
74542;BME280;63015;45.378;20.360;2023-12-20T02:18:56;100604.75;;;1.73;79.74
74542;BME280;63015;45.378;20.360;2023-12-20T02:20:57;100602.53;;;1.82;79.48
74542;BME280;63015;45.378;20.360;2023-12-20T02:22:57;100601.34;;;1.74;79.54
74542;BME280;63015;45.378;20.360;2023-12-20T02:24:58;100604.75;;;1.73;79.52
74542;BME280;63015;45.378;20.360;2023-12-20T02:26:59;100598.97;;;1.78;79.41
74542;BME280;63015;45.378;20.360;2023-12-20T02:29:06;100595.72;;;1.84;79.13
74542;BME280;63015;45.378;20.360;2023-12-20T02:31:07;100598.44;;;1.87;78.69
74542;BME280;63015;45.378;20.360;2023-12-20T02:33:10;100590.19;;;1.96;78.48
74542;BME280;63015;45.378;20.360;2023-12-20T02:35:11;100590.88;;;1.92;78.59
74542;BME280;63015;45.378;20.360;2023-12-20T02:37:13;100604.28;;;1.83;78.79
74542;BME280;63015;45.378;20.360;2023-12-20T02:39:14;100578.91;;;1.92;78.61
74542;BME280;63015;45.378;20.360;2023-12-20T02:41:14;100591.81;;;1.94;78.67
74542;BME280;63015;45.378;20.360;2023-12-20T02:43:18;100589.47;;;2.00;78.15
74542;BME280;63015;45.378;20.360;2023-12-20T02:45:18;100584.38;;;2.02;77.99
74542;BME280;63015;45.378;20.360;2023-12-20T02:47:19;100583.53;;;2.01;77.74
74542;BME280;63015;45.378;20.360;2023-12-20T02:49:24;100583.44;;;2.00;77.63
74542;BME280;63015;45.378;20.360;2023-12-20T02:51:24;100579.81;;;1.94;77.73
74542;BME280;63015;45.378;20.360;2023-12-20T02:53:25;100571.91;;;1.88;77.69
74542;BME280;63015;45.378;20.360;2023-12-20T02:55:26;100573.31;;;1.80;77.70
74542;BME280;63015;45.378;20.360;2023-12-20T02:57:27;100570.75;;;1.80;77.56
74542;BME280;63015;45.378;20.360;2023-12-20T02:59:28;100567.94;;;1.74;77.74
74542;BME280;63015;45.378;20.360;2023-12-20T03:01:29;100566.13;;;1.71;77.83
74542;BME280;63015;45.378;20.360;2023-12-20T03:03:30;100559.38;;;1.51;78.35
74542;BME280;63015;45.378;20.360;2023-12-20T03:05:30;100555.22;;;1.54;78.29
74542;BME280;63015;45.378;20.360;2023-12-20T03:07:31;100550.63;;;1.45;78.25
74542;BME280;63015;45.378;20.360;2023-12-20T03:09:32;100546.09;;;1.38;78.56
74542;BME280;63015;45.378;20.360;2023-12-20T03:11:32;100545.94;;;1.35;78.81
74542;BME280;63015;45.378;20.360;2023-12-20T03:13:33;100545.59;;;1.26;79.20
74542;BME280;63015;45.378;20.360;2023-12-20T03:15:33;100546.09;;;1.17;79.39
74542;BME280;63015;45.378;20.360;2023-12-20T03:17:34;100536.97;;;1.24;79.15
74542;BME280;63015;45.378;20.360;2023-12-20T03:19:35;100528.13;;;1.17;79.18
74542;BME280;63015;45.378;20.360;2023-12-20T03:21:35;100531.75;;;1.22;78.99
74542;BME280;63015;45.378;20.360;2023-12-20T03:23:36;100524.41;;;1.09;79.59
74542;BME280;63015;45.378;20.360;2023-12-20T03:25:36;100526.41;;;1.16;79.07
74542;BME280;63015;45.378;20.360;2023-12-20T03:27:37;100521.84;;;1.09;79.70
74542;BME280;63015;45.378;20.360;2023-12-20T03:29:41;100519.03;;;1.03;79.77
74542;BME280;63015;45.378;20.360;2023-12-20T03:31:41;100513.72;;;0.98;80.38
74542;BME280;63015;45.378;20.360;2023-12-20T03:33:42;100511.56;;;1.09;79.96
74542;BME280;63015;45.378;20.360;2023-12-20T03:35:42;100510.56;;;1.05;79.63
74542;BME280;63015;45.378;20.360;2023-12-20T03:37:43;100510.47;;;1.02;80.08
74542;BME280;63015;45.378;20.360;2023-12-20T03:39:43;100504.28;;;0.97;80.09
74542;BME280;63015;45.378;20.360;2023-12-20T03:41:44;100496.28;;;0.89;80.54
74542;BME280;63015;45.378;20.360;2023-12-20T03:43:44;100502.63;;;0.99;80.58
74542;BME280;63015;45.378;20.360;2023-12-20T03:45:45;100501.81;;;1.00;80.43
74542;BME280;63015;45.378;20.360;2023-12-20T03:47:46;100498.63;;;1.06;80.06
74542;BME280;63015;45.378;20.360;2023-12-20T03:49:47;100487.31;;;1.01;80.23
74542;BME280;63015;45.378;20.360;2023-12-20T03:51:47;100484.75;;;1.01;80.09
74542;BME280;63015;45.378;20.360;2023-12-20T03:53:48;100488.06;;;0.98;79.89
74542;BME280;63015;45.378;20.360;2023-12-20T03:55:48;100479.38;;;0.94;80.17
74542;BME280;63015;45.378;20.360;2023-12-20T03:57:49;100481.03;;;0.94;80.14
74542;BME280;63015;45.378;20.360;2023-12-20T03:59:49;100483.84;;;1.00;79.68
74542;BME280;63015;45.378;20.360;2023-12-20T04:01:50;100467.69;;;0.80;80.81
74542;BME280;63015;45.378;20.360;2023-12-20T04:03:51;100470.78;;;0.71;81.78
74542;BME280;63015;45.378;20.360;2023-12-20T04:05:51;100467.44;;;0.74;81.92
74542;BME280;63015;45.378;20.360;2023-12-20T04:07:52;100462.25;;;0.72;82.22
74542;BME280;63015;45.378;20.360;2023-12-20T04:09:52;100460.50;;;0.71;82.14
74542;BME280;63015;45.378;20.360;2023-12-20T04:11:53;100452.16;;;0.77;82.24
74542;BME280;63015;45.378;20.360;2023-12-20T04:13:54;100451.47;;;0.81;81.61
74542;BME280;63015;45.378;20.360;2023-12-20T04:15:54;100453.69;;;0.72;82.29
74542;BME280;63015;45.378;20.360;2023-12-20T04:17:55;100452.81;;;0.71;82.11
74542;BME280;63015;45.378;20.360;2023-12-20T04:19:55;100451.59;;;0.84;82.29
74542;BME280;63015;45.378;20.360;2023-12-20T04:21:56;100448.34;;;0.88;82.41
74542;BME280;63015;45.378;20.360;2023-12-20T04:23:56;100443.19;;;0.88;81.65
74542;BME280;63015;45.378;20.360;2023-12-20T04:25:57;100444.81;;;0.86;81.97
74542;BME280;63015;45.378;20.360;2023-12-20T04:27:57;100443.25;;;0.90;81.90
74542;BME280;63015;45.378;20.360;2023-12-20T04:29:58;100441.94;;;1.00;81.12
74542;BME280;63015;45.378;20.360;2023-12-20T04:31:59;100436.38;;;0.89;81.40
74542;BME280;63015;45.378;20.360;2023-12-20T04:33:59;100431.53;;;0.96;81.22
74542;BME280;63015;45.378;20.360;2023-12-20T04:36:00;100436.22;;;0.84;81.79
74542;BME280;63015;45.378;20.360;2023-12-20T04:38:00;100436.31;;;0.87;81.88
74542;BME280;63015;45.378;20.360;2023-12-20T04:40:01;100446.06;;;0.96;82.03
74542;BME280;63015;45.378;20.360;2023-12-20T04:42:02;100438.19;;;0.91;81.61
74542;BME280;63015;45.378;20.360;2023-12-20T04:44:03;100449.34;;;0.92;81.92
74542;BME280;63015;45.378;20.360;2023-12-20T04:46:04;100437.38;;;0.92;82.08
74542;BME280;63015;45.378;20.360;2023-12-20T04:48:05;100436.78;;;1.00;81.76
74542;BME280;63015;45.378;20.360;2023-12-20T04:50:06;100432.53;;;1.00;81.68
74542;BME280;63015;45.378;20.360;2023-12-20T04:52:06;100429.44;;;1.09;81.67
74542;BME280;63015;45.378;20.360;2023-12-20T04:54:07;100432.81;;;1.08;81.23
74542;BME280;63015;45.378;20.360;2023-12-20T04:56:08;100437.13;;;1.09;81.27
74542;BME280;63015;45.378;20.360;2023-12-20T04:58:08;100436.03;;;1.02;81.15
74542;BME280;63015;45.378;20.360;2023-12-20T05:00:10;100433.75;;;1.10;81.08
74542;BME280;63015;45.378;20.360;2023-12-20T05:02:11;100435.28;;;1.05;80.78
74542;BME280;63015;45.378;20.360;2023-12-20T05:04:14;100438.75;;;1.07;80.70
74542;BME280;63015;45.378;20.360;2023-12-20T05:06:14;100435.28;;;1.05;80.71
74542;BME280;63015;45.378;20.360;2023-12-20T05:08:15;100429.50;;;0.88;81.25
74542;BME280;63015;45.378;20.360;2023-12-20T05:10:16;100429.63;;;0.91;81.01
74542;BME280;63015;45.378;20.360;2023-12-20T05:12:16;100421.97;;;0.92;80.88
74542;BME280;63015;45.378;20.360;2023-12-20T05:14:17;100437.31;;;0.91;80.82
74542;BME280;63015;45.378;20.360;2023-12-20T05:16:17;100427.00;;;0.89;80.88
74542;BME280;63015;45.378;20.360;2023-12-20T05:18:18;100421.81;;;0.88;80.55
74542;BME280;63015;45.378;20.360;2023-12-20T05:20:18;100420.16;;;0.90;80.64
74542;BME280;63015;45.378;20.360;2023-12-20T05:22:19;100421.72;;;0.86;80.69
74542;BME280;63015;45.378;20.360;2023-12-20T05:24:20;100412.88;;;0.78;81.35
74542;BME280;63015;45.378;20.360;2023-12-20T05:26:21;100403.78;;;0.63;81.67
74542;BME280;63015;45.378;20.360;2023-12-20T05:28:21;100410.00;;;0.70;81.79
74542;BME280;63015;45.378;20.360;2023-12-20T05:30:22;100404.78;;;0.67;81.56
74542;BME280;63015;45.378;20.360;2023-12-20T05:32:23;100406.41;;;0.65;81.67
74542;BME280;63015;45.378;20.360;2023-12-20T05:34:24;100411.06;;;0.75;81.80
74542;BME280;63015;45.378;20.360;2023-12-20T05:36:24;100413.69;;;0.77;81.86
74542;BME280;63015;45.378;20.360;2023-12-20T05:38:25;100407.03;;;0.82;81.41
74542;BME280;63015;45.378;20.360;2023-12-20T05:40:25;100404.66;;;0.87;81.20
74542;BME280;63015;45.378;20.360;2023-12-20T05:42:26;100416.78;;;0.91;81.13
74542;BME280;63015;45.378;20.360;2023-12-20T05:44:26;100405.13;;;0.76;81.45
74542;BME280;63015;45.378;20.360;2023-12-20T05:46:27;100408.56;;;0.77;81.09
74542;BME280;63015;45.378;20.360;2023-12-20T05:48:28;100402.50;;;0.75;81.83
74542;BME280;63015;45.378;20.360;2023-12-20T05:50:28;100397.88;;;0.89;81.21
74542;BME280;63015;45.378;20.360;2023-12-20T05:52:29;100400.25;;;0.82;81.21
74542;BME280;63015;45.378;20.360;2023-12-20T05:54:29;100398.59;;;0.85;81.22
74542;BME280;63015;45.378;20.360;2023-12-20T05:56:30;100402.56;;;0.76;81.75
74542;BME280;63015;45.378;20.360;2023-12-20T05:58:32;100393.41;;;0.83;81.49
74542;BME280;63015;45.378;20.360;2023-12-20T06:00:33;100390.84;;;0.83;81.74
74542;BME280;63015;45.378;20.360;2023-12-20T06:02:34;100388.63;;;0.92;81.25
74542;BME280;63015;45.378;20.360;2023-12-20T06:04:34;100385.41;;;0.98;81.31
74542;BME280;63015;45.378;20.360;2023-12-20T06:06:40;100388.78;;;0.97;81.50
74542;BME280;63015;45.378;20.360;2023-12-20T06:08:41;100388.09;;;1.01;81.53
74542;BME280;63015;45.378;20.360;2023-12-20T06:10:44;100388.38;;;1.09;81.01
74542;BME280;63015;45.378;20.360;2023-12-20T06:12:45;100384.22;;;1.12;80.94
74542;BME280;63015;45.378;20.360;2023-12-20T06:14:48;100385.91;;;1.12;80.87
74542;BME280;63015;45.378;20.360;2023-12-20T06:16:49;100386.00;;;1.13;80.60
74542;BME280;63015;45.378;20.360;2023-12-20T06:18:49;100381.38;;;1.05;80.75
74542;BME280;63015;45.378;20.360;2023-12-20T06:20:50;100377.16;;;1.07;80.81
74542;BME280;63015;45.378;20.360;2023-12-20T06:22:50;100386.56;;;1.06;80.83
74542;BME280;63015;45.378;20.360;2023-12-20T06:24:51;100386.00;;;1.13;80.55
74542;BME280;63015;45.378;20.360;2023-12-20T06:26:52;100384.09;;;1.09;80.58
74542;BME280;63015;45.378;20.360;2023-12-20T06:28:52;100386.75;;;1.11;80.41
74542;BME280;63015;45.378;20.360;2023-12-20T06:30:53;100389.38;;;1.12;80.11
74542;BME280;63015;45.378;20.360;2023-12-20T06:32:54;100391.13;;;1.13;80.19
74542;BME280;63015;45.378;20.360;2023-12-20T06:34:57;100387.84;;;1.18;80.06
74542;BME280;63015;45.378;20.360;2023-12-20T06:36:59;100382.53;;;1.13;80.14
74542;BME280;63015;45.378;20.360;2023-12-20T06:38:59;100388.56;;;1.13;80.44
74542;BME280;63015;45.378;20.360;2023-12-20T06:41:13;100376.53;;;1.12;80.05
74542;BME280;63015;45.378;20.360;2023-12-20T06:43:14;100381.06;;;1.20;80.11
74542;BME280;63015;45.378;20.360;2023-12-20T06:45:15;100384.34;;;1.15;80.15
74542;BME280;63015;45.378;20.360;2023-12-20T06:47:15;100385.81;;;1.09;80.48
74542;BME280;63015;45.378;20.360;2023-12-20T06:49:16;100391.31;;;1.20;80.04
74542;BME280;63015;45.378;20.360;2023-12-20T06:51:16;100386.03;;;1.15;80.38
74542;BME280;63015;45.378;20.360;2023-12-20T06:53:18;100386.31;;;1.23;80.27
74542;BME280;63015;45.378;20.360;2023-12-20T06:55:18;100384.59;;;1.23;80.32
74542;BME280;63015;45.378;20.360;2023-12-20T06:57:19;100382.09;;;1.25;80.26
74542;BME280;63015;45.378;20.360;2023-12-20T06:59:20;100378.13;;;1.33;79.80
74542;BME280;63015;45.378;20.360;2023-12-20T07:01:20;100385.00;;;1.34;79.78
74542;BME280;63015;45.378;20.360;2023-12-20T07:03:21;100382.38;;;1.33;80.15
74542;BME280;63015;45.378;20.360;2023-12-20T07:05:22;100378.84;;;1.29;79.89
74542;BME280;63015;45.378;20.360;2023-12-20T07:07:22;100387.72;;;1.39;79.93
74542;BME280;63015;45.378;20.360;2023-12-20T07:09:24;100381.59;;;1.35;80.12
74542;BME280;63015;45.378;20.360;2023-12-20T07:11:25;100381.72;;;1.38;80.13
74542;BME280;63015;45.378;20.360;2023-12-20T07:13:26;100377.38;;;1.36;80.07
74542;BME280;63015;45.378;20.360;2023-12-20T07:15:27;100372.31;;;1.39;80.02
74542;BME280;63015;45.378;20.360;2023-12-20T07:17:29;100371.81;;;1.49;79.82
74542;BME280;63015;45.378;20.360;2023-12-20T07:19:30;100367.72;;;1.54;79.55
74542;BME280;63015;45.378;20.360;2023-12-20T07:21:30;100368.75;;;1.59;79.27
74542;BME280;63015;45.378;20.360;2023-12-20T07:23:31;100364.25;;;1.52;79.51
74542;BME280;63015;45.378;20.360;2023-12-20T07:25:32;100361.88;;;1.58;79.33
74542;BME280;63015;45.378;20.360;2023-12-20T07:27:32;100361.69;;;1.52;79.64
74542;BME280;63015;45.378;20.360;2023-12-20T07:29:33;100358.38;;;1.56;79.53
74542;BME280;63015;45.378;20.360;2023-12-20T07:31:33;100355.09;;;1.60;79.72
74542;BME280;63015;45.378;20.360;2023-12-20T07:33:35;100356.13;;;1.66;79.57
74542;BME280;63015;45.378;20.360;2023-12-20T07:35:35;100354.59;;;1.71;79.32
74542;BME280;63015;45.378;20.360;2023-12-20T07:37:37;100356.59;;;1.79;79.25
74542;BME280;63015;45.378;20.360;2023-12-20T07:39:39;100368.97;;;1.91;78.98
74542;BME280;63015;45.378;20.360;2023-12-20T07:41:40;100368.38;;;1.99;78.68
74542;BME280;63015;45.378;20.360;2023-12-20T07:43:41;100361.00;;;2.09;78.57
74542;BME280;63015;45.378;20.360;2023-12-20T07:45:42;100361.09;;;2.12;78.20
74542;BME280;63015;45.378;20.360;2023-12-20T07:47:42;100359.50;;;2.16;77.98
74542;BME280;63015;45.378;20.360;2023-12-20T07:49:43;100353.38;;;2.12;78.38
74542;BME280;63015;45.378;20.360;2023-12-20T07:51:43;100353.44;;;2.14;78.14
74542;BME280;63015;45.378;20.360;2023-12-20T07:53:44;100346.44;;;2.10;78.02
74542;BME280;63015;45.378;20.360;2023-12-20T07:55:44;100348.91;;;2.07;78.30
74542;BME280;63015;45.378;20.360;2023-12-20T07:57:45;100349.94;;;2.12;78.35
74542;BME280;63015;45.378;20.360;2023-12-20T07:59:45;100353.50;;;2.16;78.16
74542;BME280;63015;45.378;20.360;2023-12-20T08:01:46;100360.44;;;2.18;78.06
74542;BME280;63015;45.378;20.360;2023-12-20T08:03:48;100364.63;;;2.16;77.87
74542;BME280;63015;45.378;20.360;2023-12-20T08:05:51;100359.63;;;2.19;78.04
74542;BME280;63015;45.378;20.360;2023-12-20T08:07:51;100363.25;;;2.26;78.03
74542;BME280;63015;45.378;20.360;2023-12-20T08:09:52;100356.59;;;2.33;77.85
74542;BME280;63015;45.378;20.360;2023-12-20T08:11:55;100355.19;;;2.42;77.65
74542;BME280;63015;45.378;20.360;2023-12-20T08:13:55;100356.69;;;2.36;77.38
74542;BME280;63015;45.378;20.360;2023-12-20T08:15:56;100356.44;;;2.28;77.35
74542;BME280;63015;45.378;20.360;2023-12-20T08:17:56;100361.44;;;2.23;77.75
74542;BME280;63015;45.378;20.360;2023-12-20T08:19:57;100364.88;;;2.24;77.59
74542;BME280;63015;45.378;20.360;2023-12-20T08:21:57;100358.09;;;2.26;77.47
74542;BME280;63015;45.378;20.360;2023-12-20T08:23:58;100358.84;;;2.22;77.75
74542;BME280;63015;45.378;20.360;2023-12-20T08:26:07;100354.88;;;2.33;77.39
74542;BME280;63015;45.378;20.360;2023-12-20T08:28:08;100356.06;;;2.43;77.52
74542;BME280;63015;45.378;20.360;2023-12-20T08:30:09;100354.53;;;2.50;77.17
74542;BME280;63015;45.378;20.360;2023-12-20T08:32:10;100351.06;;;2.47;77.05
74542;BME280;63015;45.378;20.360;2023-12-20T08:34:10;100340.22;;;2.58;77.22
74542;BME280;63015;45.378;20.360;2023-12-20T08:36:13;100344.66;;;2.63;77.15
74542;BME280;63015;45.378;20.360;2023-12-20T08:38:13;100353.44;;;2.70;77.10
74542;BME280;63015;45.378;20.360;2023-12-20T08:40:14;100347.44;;;2.70;76.50
74542;BME280;63015;45.378;20.360;2023-12-20T08:42:15;100357.72;;;2.70;76.54
74542;BME280;63015;45.378;20.360;2023-12-20T08:44:16;100349.19;;;2.71;76.47
74542;BME280;63015;45.378;20.360;2023-12-20T08:46:16;100346.66;;;2.72;76.55
74542;BME280;63015;45.378;20.360;2023-12-20T08:48:17;100341.47;;;2.71;76.26
74542;BME280;63015;45.378;20.360;2023-12-20T08:50:17;100345.06;;;2.76;76.48
74542;BME280;63015;45.378;20.360;2023-12-20T08:52:18;100340.03;;;2.80;76.40
74542;BME280;63015;45.378;20.360;2023-12-20T08:54:19;100339.94;;;2.77;76.23
74542;BME280;63015;45.378;20.360;2023-12-20T08:56:20;100333.38;;;2.87;76.32
74542;BME280;63015;45.378;20.360;2023-12-20T08:58:20;100342.78;;;2.87;76.22
74542;BME280;63015;45.378;20.360;2023-12-20T09:00:21;100344.31;;;2.80;76.19
74542;BME280;63015;45.378;20.360;2023-12-20T09:02:24;100329.13;;;2.89;76.18
74542;BME280;63015;45.378;20.360;2023-12-20T09:04:31;100325.81;;;2.93;76.15
74542;BME280;63015;45.378;20.360;2023-12-20T09:06:32;100321.59;;;2.95;75.68
74542;BME280;63015;45.378;20.360;2023-12-20T09:08:32;100324.13;;;2.94;75.41
74542;BME280;63015;45.378;20.360;2023-12-20T09:10:33;100327.66;;;2.98;75.69
74542;BME280;63015;45.378;20.360;2023-12-20T09:12:34;100324.16;;;2.95;75.74
74542;BME280;63015;45.378;20.360;2023-12-20T09:14:34;100316.72;;;3.06;75.87
74542;BME280;63015;45.378;20.360;2023-12-20T09:16:35;100313.22;;;3.03;75.59
74542;BME280;63015;45.378;20.360;2023-12-20T09:18:35;100306.50;;;3.08;75.51
74542;BME280;63015;45.378;20.360;2023-12-20T09:20:36;100313.53;;;3.15;75.92
74542;BME280;63015;45.378;20.360;2023-12-20T09:22:44;100305.25;;;3.27;75.94
74542;BME280;63015;45.378;20.360;2023-12-20T09:24:45;100314.19;;;3.40;75.74
74542;BME280;63015;45.378;20.360;2023-12-20T09:26:45;100314.47;;;3.49;75.47
74542;BME280;63015;45.378;20.360;2023-12-20T09:28:46;100293.16;;;3.56;75.07
74542;BME280;63015;45.378;20.360;2023-12-20T09:30:47;100304.53;;;3.65;75.00
74542;BME280;63015;45.378;20.360;2023-12-20T09:32:48;100301.81;;;3.58;74.75
74542;BME280;63015;45.378;20.360;2023-12-20T09:34:48;100296.09;;;3.70;74.97
74542;BME280;63015;45.378;20.360;2023-12-20T09:36:49;100302.19;;;3.74;75.13
74542;BME280;63015;45.378;20.360;2023-12-20T09:38:50;100297.13;;;3.78;74.46
74542;BME280;63015;45.378;20.360;2023-12-20T09:40:52;100293.03;;;3.85;74.27
74542;BME280;63015;45.378;20.360;2023-12-20T09:42:58;100296.63;;;3.92;74.48
74542;BME280;63015;45.378;20.360;2023-12-20T09:45:03;100295.84;;;3.96;73.93
74542;BME280;63015;45.378;20.360;2023-12-20T09:47:08;100306.41;;;3.72;74.30
74542;BME280;63015;45.378;20.360;2023-12-20T09:49:09;100302.19;;;3.40;75.02
74542;BME280;63015;45.378;20.360;2023-12-20T09:51:10;100293.13;;;3.55;75.00
74542;BME280;63015;45.378;20.360;2023-12-20T09:53:14;100292.38;;;3.60;74.81
74542;BME280;63015;45.378;20.360;2023-12-20T09:55:17;100297.59;;;3.62;75.16
74542;BME280;63015;45.378;20.360;2023-12-20T09:57:18;100308.31;;;3.77;75.01
74542;BME280;63015;45.378;20.360;2023-12-20T09:59:22;100310.97;;;3.82;75.07
74542;BME280;63015;45.378;20.360;2023-12-20T10:01:23;100303.81;;;3.37;75.51
74542;BME280;63015;45.378;20.360;2023-12-20T10:03:25;100301.03;;;3.62;75.67
74542;BME280;63015;45.378;20.360;2023-12-20T10:05:31;100289.34;;;3.75;75.41
74542;BME280;63015;45.378;20.360;2023-12-20T10:07:32;100282.75;;;3.87;75.11
74542;BME280;63015;45.378;20.360;2023-12-20T10:09:33;100284.91;;;3.70;74.94
74542;BME280;63015;45.378;20.360;2023-12-20T10:11:38;100277.59;;;3.52;76.30
74542;BME280;63015;45.378;20.360;2023-12-20T10:13:40;100284.75;;;3.64;75.52
74542;BME280;63015;45.378;20.360;2023-12-20T10:15:44;100281.16;;;3.57;75.41
74542;BME280;63015;45.378;20.360;2023-12-20T10:17:45;100275.94;;;3.55;75.63
74542;BME280;63015;45.378;20.360;2023-12-20T10:19:49;100281.19;;;3.58;75.53
74542;BME280;63015;45.378;20.360;2023-12-20T10:21:49;100280.19;;;3.53;75.37
74542;BME280;63015;45.378;20.360;2023-12-20T10:23:50;100284.41;;;3.18;75.04
74542;BME280;63015;45.378;20.360;2023-12-20T10:25:58;100282.78;;;3.20;75.28
74542;BME280;63015;45.378;20.360;2023-12-20T10:28:14;100281.53;;;3.05;75.70
74542;BME280;63015;45.378;20.360;2023-12-20T10:30:15;100272.31;;;3.13;75.97
74542;BME280;63015;45.378;20.360;2023-12-20T10:32:26;100278.88;;;3.04;76.04
74542;BME280;63015;45.378;20.360;2023-12-20T10:34:27;100269.41;;;3.35;75.87